Time;durP1;ratioP1;P1;durP2;ratioP2;P2;SDS_P1;SDS_P2;PMS_P1;PMS_P2;Temp;Humidity;BMP_temperature;BMP_pressure;BME280_temperature;BME280_humidity;BME280_pressure;Samples;Min_cycle;Max_cycle;Signal;HPM_P1;HPM_P2
2022/06/07 00:01:05;;;;;;;249.55;35.60;;;16.50;99.90;;;15.55;100.00;100959.94;4946565;28;20883;-73
2022/06/07 00:03:31;;;;;;;295.67;40.25;;;16.50;99.90;;;15.61;100.00;100964.00;4943493;28;20045;-73
2022/06/07 00:05:57;;;;;;;314.88;39.25;;;16.50;99.90;;;15.55;100.00;100956.41;4925418;28;20035;-74
2022/06/07 00:08:23;;;;;;;250.55;30.10;;;16.50;99.90;;;15.60;100.00;100962.31;4943837;28;20019;-73
2022/06/07 00:10:49;;;;;;;79.22;28.27;;;16.50;99.90;;;15.65;100.00;100960.19;4946269;28;20054;-73
2022/06/07 00:13:17;;;;;;;436.83;42.65;;;16.60;99.90;;;15.67;100.00;100966.25;4927151;28;20034;-73
2022/06/07 00:15:44;;;;;;;145.98;31.77;;;16.60;99.90;;;15.70;100.00;100962.56;4935405;28;20395;-73
2022/06/07 00:18:11;;;;;;;140.85;31.52;;;16.60;99.90;;;15.69;100.00;100961.69;4959622;28;20043;-74
2022/06/07 00:20:38;;;;;;;234.60;33.50;;;16.60;99.90;;;15.75;100.00;100963.16;4935568;28;20518;-74
2022/06/07 00:23:11;;;;;;;199.20;37.28;;;16.60;99.90;;;15.76;100.00;100965.69;4951588;28;20054;-73
2022/06/07 00:25:38;;;;;;;102.72;33.42;;;16.60;99.90;;;15.77;100.00;100951.47;4953000;28;20034;-74
2022/06/07 00:28:04;;;;;;;94.47;35.08;;;16.70;99.90;;;15.78;100.00;100952.31;4934847;28;20031;-74
2022/06/07 00:30:31;;;;;;;90.90;31.77;;;16.70;99.90;;;15.79;100.00;100954.88;4960581;28;20508;-74
2022/06/07 00:32:57;;;;;;;76.75;31.33;;;16.70;99.90;;;15.81;100.00;100959.22;4931960;28;20092;-74
2022/06/07 00:35:23;;;;;;;94.35;31.80;;;16.70;99.90;;;15.80;100.00;100955.72;4949199;28;20373;-73
2022/06/07 00:37:49;;;;;;;79.13;27.65;;;16.70;99.90;;;15.77;100.00;100950.63;4943514;28;20566;-74
2022/06/07 00:40:16;;;;;;;60.67;26.20;;;16.60;99.90;;;15.79;100.00;100965.50;4959370;28;20062;-74
2022/06/07 00:42:42;;;;;;;54.72;24.65;;;16.70;99.90;;;15.79;100.00;100964.66;4949284;28;20022;-73
2022/06/07 00:45:21;;;;;;;58.50;24.90;;;16.70;99.90;;;15.76;100.00;100970.16;4937504;28;20114;-74
2022/06/07 00:47:48;;;;;;;50.30;22.45;;;16.60;99.90;;;15.72;100.00;100956.25;4959330;28;20031;-74
2022/06/07 00:50:24;;;;;;;55.58;23.30;;;16.60;99.90;;;15.68;100.00;100957.34;4950661;28;20041;-74
2022/06/07 00:52:50;;;;;;;36.58;19.80;;;16.50;99.90;;;15.57;100.00;100951.88;4943352;28;20436;-74
2022/06/07 00:55:17;;;;;;;;;;;16.50;99.90;;;15.45;100.00;100950.00;4975418;28;20215;-73
2022/06/07 00:57:43;;;;;;;30.90;18.17;;;16.30;99.90;;;15.31;100.00;100942.91;4931937;28;19910;-74
2022/06/07 01:00:13;;;;;;;32.63;17.25;;;16.20;99.90;;;15.18;100.00;100942.81;4920569;28;20492;-73
2022/06/07 01:02:39;;;;;;;41.17;20.10;;;16.10;99.90;;;15.09;100.00;100946.06;4958945;28;20042;-73
2022/06/07 01:05:06;;;;;;;49.80;22.48;;;16.00;99.90;;;14.98;100.00;100952.03;4951538;28;20057;-74
2022/06/07 01:13:00;;;;;;;76.32;23.25;;;15.70;99.90;;;14.64;100.00;100935.50;4958431;28;20042;-73
2022/06/07 01:15:26;;;;;;;306.27;29.25;;;15.50;99.90;;;14.54;100.00;100932.53;4951120;28;20078;-74
2022/06/07 01:17:52;;;;;;;42.63;17.45;;;15.50;99.90;;;14.44;100.00;100936.69;4950994;28;20051;-74
2022/06/07 01:20:18;;;;;;;;;;;15.50;99.90;;;14.31;100.00;100931.25;4961075;28;20042;-73
2022/06/07 01:22:43;;;;;;;24.38;13.82;;;15.20;99.90;;;14.21;100.00;100935.41;4940491;28;19918;-74
2022/06/07 01:25:10;;;;;;;37.65;16.58;;;15.20;99.90;;;14.13;100.00;100929.69;4975881;28;20031;-74
2022/06/07 01:27:36;;;;;;;24.58;12.80;;;15.10;99.90;;;14.05;100.00;100929.28;4959726;28;20304;-74
2022/06/07 01:30:04;;;;;;;186.95;30.80;;;15.00;99.90;;;13.95;100.00;100926.28;4968568;28;20127;-73
2022/06/07 01:32:30;;;;;;;302.70;29.30;;;14.90;99.90;;;13.79;100.00;100915.75;4951981;28;20051;-74
2022/06/07 01:34:55;;;;;;;200.13;23.45;;;14.90;99.90;;;13.77;100.00;100916.78;4932996;28;20519;-74
2022/06/07 01:37:21;;;;;;;254.30;36.10;;;14.70;99.90;;;13.64;100.00;100911.31;4959871;28;20111;-74
2022/06/07 01:42:32;;;;;;;19.90;14.05;;;14.60;99.90;;;13.50;100.00;100901.53;4948705;28;20038;-73
2022/06/07 01:44:58;;;;;;;39.00;19.38;;;14.60;99.90;;;13.50;100.00;100902.38;4952825;28;20050;-74
2022/06/07 01:47:29;;;;;;;26.00;15.60;;;14.60;99.90;;;13.48;100.00;100895.47;4958964;28;20459;-74
2022/06/07 01:49:55;;;;;;;25.02;15.75;;;14.50;99.90;;;13.48;100.00;100896.31;4951395;28;20043;-73
2022/06/07 01:52:26;;;;;;;27.73;16.50;;;14.50;99.90;;;13.48;100.00;100895.47;4939139;28;20042;-74
2022/06/07 01:54:52;;;;;;;30.73;16.25;;;14.50;99.90;;;13.43;100.00;100890.41;4954647;28;20035;-74
2022/06/07 01:57:19;;;;;;;24.35;15.18;;;14.50;99.90;;;13.36;100.00;100894.34;4952115;28;20039;-74
2022/06/07 01:59:45;;;;;;;22.98;15.48;;;14.40;99.90;;;13.34;100.00;100898.88;4937477;28;20537;-73
2022/06/07 02:02:13;;;;;;;30.70;16.92;;;14.40;99.90;;;13.28;100.00;100897.44;4943951;28;20031;-74
2022/06/07 02:04:41;;;;;;;23.40;14.63;;;14.30;99.90;;;13.23;100.00;100898.59;4948450;28;20047;-74
2022/06/07 02:07:08;;;;;;;27.13;15.45;;;14.30;99.90;;;13.20;100.00;100891.69;4977192;28;20034;-73
2022/06/07 02:09:35;;;;;;;29.40;16.13;;;14.20;99.90;;;13.13;100.00;100896.44;4963901;28;20055;-73
2022/06/07 02:12:01;;;;;;;31.45;17.33;;;14.20;99.90;;;13.09;100.00;100896.69;4947568;28;20065;-73
2022/06/07 02:14:29;;;;;;;31.10;16.55;;;14.10;99.90;;;13.02;100.00;100892.66;4953953;28;20071;-74
2022/06/07 02:16:56;;;;;;;33.20;16.60;;;14.10;99.90;;;12.96;100.00;100880.66;4937739;28;20467;-73
2022/06/07 02:19:22;;;;;;;23.95;14.23;;;14.00;99.90;;;12.90;100.00;100873.91;4941309;28;20640;-74
2022/06/07 02:21:47;;;;;;;31.90;17.17;;;14.00;99.90;;;12.84;100.00;100866.28;4947398;28;20027;-74
2022/06/07 02:24:14;;;;;;;35.47;18.45;;;13.90;99.90;;;12.80;100.00;100885.88;4945831;28;20113;-74
2022/06/07 02:26:53;;;;;;;43.63;20.20;;;13.80;99.90;;;12.75;100.00;100882.66;4951995;28;20046;-74
2022/06/07 02:29:32;;;;;;;31.50;14.38;;;13.80;99.90;;;12.70;100.00;100876.75;4935864;28;20027;-74
2022/06/07 02:32:27;;;;;;;126.20;17.75;;;13.70;99.90;;;12.64;100.00;100887.66;4963597;28;20027;-74
2022/06/07 02:34:57;;;;;;;19.33;10.45;;;13.60;99.90;;;12.52;100.00;100881.22;4946281;28;20125;-74
2022/06/07 02:37:26;;;;;;;117.00;13.50;;;13.50;99.90;;;12.43;100.00;100882.53;4956066;28;20062;-74
2022/06/07 02:39:53;;;;;;;12.70;9.18;;;13.50;99.90;;;12.36;100.00;100880.31;4957139;28;20035;-74
2022/06/07 02:42:22;;;;;;;12.55;9.43;;;13.40;99.90;;;12.29;100.00;100882.41;4936056;28;20043;-74
2022/06/07 02:44:48;;;;;;;24.13;13.48;;;13.30;99.90;;;12.25;100.00;100878.22;4965547;28;20038;-73
2022/06/07 02:47:14;;;;;;;23.67;12.88;;;13.30;99.90;;;12.22;100.00;100884.50;4952614;28;20819;-74
2022/06/07 02:49:40;;;;;;;21.88;13.00;;;13.20;99.90;;;12.20;100.00;100878.47;4946987;28;20041;-74
2022/06/07 02:52:06;;;;;;;56.40;21.50;;;13.20;99.90;;;12.21;100.00;100879.31;4952096;28;20030;-74
2022/06/07 02:54:32;;;;;;;80.95;27.52;;;13.20;99.90;;;12.20;100.00;100883.75;4935290;28;20125;-73
2022/06/07 02:56:58;;;;;;;65.10;26.13;;;13.20;99.90;;;12.22;100.00;100878.38;4937932;28;20634;-73
2022/06/07 02:59:23;;;;;;;32.88;17.48;;;13.30;99.90;;;12.26;100.00;100878.13;4951833;28;20177;-74
2022/06/07 03:01:50;;;;;;;36.45;18.77;;;13.30;99.90;;;12.34;100.00;100876.91;4952342;28;20054;-74
2022/06/07 03:04:16;;;;;;;26.35;15.90;;;13.30;99.90;;;12.39;100.00;100875.72;4956070;28;20023;-74
2022/06/07 03:06:41;;;;;;;44.80;18.50;;;13.40;99.90;;;12.45;100.00;100883.31;4945578;28;20071;-74
2022/06/07 03:09:07;;;;;;;43.85;17.35;;;13.40;99.90;;;12.55;100.00;100888.09;4964177;28;20023;-74
2022/06/07 03:11:33;;;;;;;;;;;13.40;99.90;;;12.54;100.00;100883.78;4960034;28;20089;-74
2022/06/07 03:13:58;;;;;;;912.83;23.88;;;13.40;99.90;;;12.41;100.00;100889.69;4943069;28;20036;-74
2022/06/07 03:16:24;;;;;;;690.22;22.23;;;13.40;99.90;;;12.40;100.00;100888.00;4943723;28;20027;-74
2022/06/07 03:18:50;;;;;;;26.52;7.50;;;13.40;99.90;;;12.44;100.00;100884.25;4959750;28;20118;-74
2022/06/07 03:21:16;;;;;;;14.55;7.97;;;13.40;99.90;;;12.55;100.00;100885.47;4962853;28;20020;-74
2022/06/07 03:23:41;;;;;;;418.65;18.63;;;13.50;99.90;;;12.68;100.00;100883.91;4936070;28;20122;-73
2022/06/07 03:26:10;;;;;;;;;;;13.50;99.90;;;12.73;100.00;100889.81;4943509;28;20051;-74
2022/06/07 03:28:36;;;;;;;598.58;17.05;;;13.60;99.90;;;12.74;100.00;100886.22;4944772;28;19910;-73
2022/06/07 03:31:05;;;;;;;234.88;9.85;;;13.60;99.90;;;12.76;100.00;100892.28;4959933;28;20031;-73
2022/06/07 03:33:34;;;;;;;213.80;17.98;;;13.60;99.90;;;12.83;100.00;100891.03;4945099;28;20115;-74
2022/06/07 03:36:06;;;;;;;28.73;15.63;;;13.70;99.90;;;12.90;100.00;100892.41;4960196;28;20077;-73
2022/06/07 03:38:32;;;;;;;24.88;14.10;;;14.10;99.90;;;13.31;100.00;100893.75;4957495;28;20507;-73
2022/06/07 03:40:58;;;;;;;26.77;15.43;;;15.60;99.90;;;14.81;100.00;100889.44;4951296;28;20141;-74
2022/06/07 03:43:23;;;;;;;;;;;17.10;99.90;;;16.58;100.00;100893.84;4954699;28;20101;-73
2022/06/07 03:45:49;;;;;;;29.05;16.08;;;18.10;99.90;;;17.53;100.00;100894.25;4954409;28;19960;-74
2022/06/07 03:48:15;;;;;;;27.30;14.52;;;17.80;99.90;;;17.12;100.00;100898.94;4959991;28;20058;-74
2022/06/07 03:50:40;;;;;;;19.42;12.90;;;17.50;99.90;;;16.61;98.84;100901.63;4944788;28;20110;-74
2022/06/07 03:53:06;;;;;;;;;;;17.40;99.90;;;16.07;99.82;100889.34;4959190;28;20023;-74
2022/06/07 03:55:32;;;;;;;33.22;15.30;;;18.10;99.90;;;17.42;98.33;100892.38;4937327;28;19914;-74
2022/06/07 03:57:58;;;;;;;22.33;14.07;;;18.50;99.90;;;17.55;93.17;100895.84;4963964;28;20034;-74
2022/06/07 04:00:24;;;;;;;23.25;13.88;;;18.30;99.90;;;17.60;92.66;100898.16;4935840;28;20039;-74
2022/06/07 04:02:49;;;;;;;22.48;12.60;;;19.60;99.90;;;19.33;88.13;100924.06;4949710;28;20031;-74
2022/06/07 04:05:15;;;;;;;18.25;11.25;;;20.80;99.90;;;20.80;80.01;100924.34;4942046;28;20039;-74
2022/06/07 04:10:26;;;;;;;17.70;10.07;;;23.40;99.90;;;23.74;67.38;100935.59;4943793;28;20334;-74
2022/06/07 04:12:51;;;;;;;13.02;9.88;;;24.30;99.90;;;24.58;63.17;100935.34;4957578;28;20094;-74
2022/06/07 04:15:18;;;;;;;;;;;24.40;99.90;;;25.83;61.93;100948.25;4958054;28;20047;-74
2022/06/07 04:17:43;;;;;;;18.63;9.00;;;26.10;99.90;;;26.73;57.29;100947.44;4943101;28;19910;-74
2022/06/07 04:20:10;;;;;;;15.18;8.35;;;26.80;99.90;;;27.42;54.58;100955.88;4946906;28;20615;-74
2022/06/07 04:22:36;;;;;;;14.65;8.35;;;27.50;99.90;;;28.22;52.68;100955.53;4944271;28;20097;-74
2022/06/07 04:25:03;;;;;;;11.63;7.80;;;28.20;99.90;;;29.03;50.40;100966.66;4933803;28;20085;-74
2022/06/07 04:27:29;;;;;;;13.07;7.47;;;28.90;99.90;;;29.94;48.20;100971.78;4942268;28;20039;-74
2022/06/07 04:29:55;;;;;;;16.65;7.88;;;29.50;99.90;;;30.52;46.57;100977.16;4943040;28;20365;-74
2022/06/07 04:32:22;;;;;;;14.25;6.88;;;30.10;99.00;;;31.20;45.27;100982.84;4951641;28;20113;-74
2022/06/07 04:34:47;;;;;;;10.57;7.20;;;30.10;98.70;;;30.81;45.55;100989.69;4942835;28;20034;-74
2022/06/07 04:37:13;;;;;;;9.63;7.10;;;30.60;97.60;;;31.89;43.11;100997.38;4917325;28;20562;-74
2022/06/07 04:39:39;;;;;;;;;;;30.50;97.00;;;31.56;44.39;100997.28;4957511;28;20118;-74
2022/06/07 04:42:05;;;;;;;12.82;6.97;;;30.50;97.90;;;31.57;44.14;100998.94;4961828;28;19940;-74
2022/06/07 04:44:31;;;;;;;10.98;6.78;;;30.20;97.30;;;31.01;45.23;101003.44;4959877;28;20031;-74
2022/06/07 04:46:57;;;;;;;10.43;6.47;;;30.10;97.90;;;30.39;45.64;100990.59;4957554;28;20106;-74
2022/06/07 04:49:26;;;;;;;10.93;6.57;;;29.60;97.80;;;29.45;46.98;100989.53;4951473;28;20054;-74
2022/06/07 04:51:52;;;;;;;12.32;6.28;;;28.70;98.60;;;27.82;50.50;100987.25;4959716;28;20113;-74
2022/06/07 04:54:17;;;;;;;9.27;6.70;;;27.70;99.40;;;26.86;53.44;100990.16;4936846;28;20038;-74
2022/06/07 04:56:43;;;;;;;10.57;5.75;;;27.40;99.80;;;27.26;51.83;100991.06;4945264;28;20123;-74
2022/06/07 04:59:10;;;;;;;19.50;6.53;;;27.10;99.90;;;26.83;52.99;100980.53;4956885;28;20039;-74
2022/06/07 05:01:39;;;;;;;8.82;6.10;;;26.50;99.90;;;26.19;54.72;100977.66;4941826;28;20544;-74
2022/06/07 05:04:06;;;;;;;7.93;5.60;;;26.40;99.90;;;26.84;53.43;100981.38;4958948;28;20089;-74
2022/06/07 05:06:39;;;;;;;9.07;5.82;;;26.20;99.90;;;26.58;54.31;100985.94;4952409;28;20045;-74
2022/06/07 05:09:13;;;;;;;9.00;5.68;;;26.70;99.90;;;28.31;49.83;100991.50;4959270;28;20110;-74
2022/06/07 05:11:39;;;;;;;9.32;5.70;;;27.00;99.90;;;27.96;51.22;100995.66;4941988;28;20834;-74
2022/06/07 05:14:06;;;;;;;7.70;5.18;;;27.20;99.90;;;27.81;50.22;100990.13;4954788;28;20031;-74
2022/06/07 05:16:36;;;;;;;10.90;5.68;;;27.50;99.90;;;29.00;48.28;101007.66;4952016;28;20034;-75
2022/06/07 05:19:01;;;;;;;9.38;4.80;;;27.70;99.90;;;28.86;47.89;101011.22;4946666;28;20041;-74
2022/06/07 05:21:27;;;;;;;11.13;5.72;;;27.70;99.60;;;27.91;49.43;101017.84;4949595;28;20459;-74
2022/06/07 05:23:53;;;;;;;8.82;5.28;;;27.30;99.70;;;26.91;51.69;101012.94;4957203;28;20055;-74
2022/06/07 05:26:33;;;;;;;9.27;5.15;;;26.70;99.90;;;25.96;53.31;101001.72;4957881;28;20031;-74
2022/06/07 05:28:59;;;;;;;8.82;4.90;;;26.00;99.90;;;25.27;54.67;100998.25;4942698;28;20070;-74
2022/06/07 05:31:26;;;;;;;11.27;5.45;;;25.50;99.90;;;25.20;55.47;100999.91;4942556;28;20499;-75
2022/06/07 05:33:52;;;;;;;6.90;4.93;;;25.20;99.90;;;25.08;55.88;101004.72;4938956;28;20529;-74
2022/06/07 05:36:19;;;;;;;8.50;4.40;;;25.30;99.90;;;26.31;53.29;101011.41;4950534;28;20027;-75
2022/06/07 05:38:46;;;;;;;9.30;4.60;;;25.60;99.90;;;26.93;51.58;101023.56;4943177;28;20113;-74
2022/06/07 05:41:23;;;;;;;8.55;4.63;;;26.30;99.90;;;28.87;48.45;101039.16;4971596;28;20039;-74
2022/06/07 05:43:49;;;;;;;7.63;4.00;;;27.60;99.90;;;31.53;42.75;101063.00;4946497;28;20026;-74
2022/06/07 05:46:15;;;;;;;8.13;4.15;;;29.30;99.50;;;33.81;39.29;101071.16;4961714;28;20423;-74
2022/06/07 05:48:41;;;;;;;8.73;3.95;;;30.90;97.10;;;35.21;36.72;101065.56;4970308;28;20525;-74
2022/06/07 05:51:07;;;;;;;4.75;3.45;;;32.40;95.80;;;36.42;34.36;101076.69;4961720;28;20047;-74
2022/06/07 05:53:33;;;;;;;3.47;2.90;;;33.50;93.10;;;36.89;32.98;101082.28;4956509;28;20027;-75
2022/06/07 05:56:07;;;;;;;6.18;2.53;;;34.40;91.80;;;37.75;32.04;101090.81;4956883;28;20031;-74
2022/06/07 05:58:33;;;;;;;5.50;1.80;;;35.00;90.20;;;37.89;30.72;101094.13;4954447;28;20027;-74
2022/06/07 06:00:59;;;;;;;1.77;1.45;;;35.40;86.80;;;38.05;30.02;101100.78;4952796;28;20046;-74
2022/06/07 06:03:25;;;;;;;2.67;1.70;;;35.70;86.20;;;38.39;29.59;101106.34;4963575;28;20561;-74
2022/06/07 06:05:50;;;;;;;5.75;1.60;;;36.10;84.50;;;38.65;28.77;101117.84;4960745;28;20042;-74
2022/06/07 06:11:11;;;;;;;4.35;1.42;;;36.70;80.60;;;38.90;27.55;101128.41;4937011;28;20049;-75
2022/06/07 06:13:37;;;;;;;3.10;1.00;;;36.90;78.50;;;38.89;27.30;101137.75;4958998;28;20047;-75
2022/06/07 06:16:10;;;;;;;3.97;1.00;;;37.00;76.30;;;38.85;27.03;101134.66;4952644;28;20565;-75
2022/06/07 06:18:38;;;;;;;1.88;1.00;;;37.10;76.70;;;38.91;26.91;101139.19;4960290;28;20038;-75
2022/06/07 06:21:04;;;;;;;4.38;1.13;;;37.30;77.10;;;39.15;26.86;101136.28;4951827;28;20100;-75
2022/06/07 06:23:30;;;;;;;3.65;1.00;;;37.40;73.20;;;39.20;26.02;101133.56;4941600;28;20078;-75
2022/06/07 06:25:56;;;;;;;2.28;1.00;;;37.50;73.60;;;39.12;26.08;101132.09;4952730;28;20427;-75
2022/06/07 06:28:22;;;;;;;2.08;1.00;;;37.60;73.60;;;39.29;26.22;101137.59;4952930;28;20027;-75
2022/06/07 06:30:48;;;;;;;5.40;1.35;;;37.80;70.30;;;39.26;25.75;101142.75;4963831;28;20033;-75
2022/06/07 06:33:16;;;;;;;2.00;1.10;;;38.00;72.60;;;39.65;25.85;101140.03;4954613;28;20372;-75
2022/06/07 06:35:51;;;;;;;3.03;1.10;;;38.40;72.30;;;39.98;25.63;101150.94;4960153;28;20115;-75
2022/06/07 06:38:18;;;;;;;3.30;1.08;;;38.60;70.20;;;39.99;25.01;101147.09;4952740;28;20882;-75
2022/06/07 06:40:45;;;;;;;4.88;1.10;;;38.50;69.40;;;39.19;25.98;101148.44;4920430;28;20514;-75
2022/06/07 06:43:13;;;;;;;4.15;1.05;;;38.30;69.00;;;39.08;26.05;101141.94;4959931;28;20161;-75
2022/06/07 06:45:40;;;;;;;10.38;1.60;;;38.10;68.00;;;38.62;25.99;101143.94;4960633;28;20055;-75
2022/06/07 06:48:08;;;;;;;1.42;0.90;;;37.90;69.60;;;38.80;25.79;101145.59;4939032;28;20026;-75
2022/06/07 06:50:35;;;;;;;1.10;0.90;;;37.80;68.10;;;38.36;26.04;101148.94;4936562;28;20412;-75
2022/06/07 06:53:01;;;;;;;1.98;0.80;;;37.60;67.00;;;38.20;26.36;101146.13;4953761;28;20030;-75
2022/06/07 06:55:27;;;;;;;1.08;0.63;;;37.50;66.90;;;38.11;25.90;101145.69;4954029;28;20257;-75
2022/06/07 06:57:53;;;;;;;1.85;0.80;;;37.40;66.50;;;37.78;25.52;101144.47;4958096;28;20035;-75
2022/06/07 07:00:19;;;;;;;3.40;0.98;;;37.20;66.20;;;37.34;26.32;101144.84;4946811;28;21150;-75
2022/06/07 07:02:47;;;;;;;2.10;0.80;;;36.90;67.20;;;36.95;26.96;101144.44;4955488;28;20026;-75
2022/06/07 07:05:16;;;;;;;2.83;0.82;;;36.60;66.30;;;36.77;26.10;101150.03;4958504;28;20392;-75
2022/06/07 07:07:43;;;;;;;11.68;1.30;;;36.40;65.70;;;36.42;25.72;101147.16;4952031;28;20558;-75
2022/06/07 07:10:10;;;;;;;2.95;1.38;;;36.20;66.40;;;36.36;26.66;101142.59;4920308;28;20050;-72
2022/06/07 07:12:36;;;;;;;2.80;1.70;;;36.20;66.70;;;36.67;26.85;101142.34;4955158;28;20031;-75
2022/06/07 07:15:07;;;;;;;4.47;0.55;;;36.20;64.30;;;36.08;26.20;101147.56;4954001;28;20046;-75
2022/06/07 07:17:33;;;;;;;1.35;0.50;;;36.00;66.60;;;35.93;26.51;101133.44;4958957;28;20026;-76
2022/06/07 07:19:59;;;;;;;4.22;0.70;;;35.90;66.60;;;36.03;26.59;101131.00;4960378;28;20049;-75
2022/06/07 07:22:24;;;;;;;4.13;0.45;;;35.90;67.50;;;36.32;27.28;101132.09;4959207;28;20038;-76
2022/06/07 07:24:50;;;;;;;0.93;0.43;;;36.00;66.20;;;36.33;26.10;101130.22;4937911;28;20031;-73
2022/06/07 07:27:18;;;;;;;1.90;0.70;;;36.10;67.40;;;36.53;26.58;101121.69;4951968;28;20080;-75
2022/06/07 07:29:43;;;;;;;4.63;0.60;;;36.20;67.80;;;36.67;26.41;101123.16;4959725;28;20042;-75
2022/06/07 07:32:09;;;;;;;0.70;0.68;;;36.40;67.30;;;36.86;27.09;101118.41;4935110;28;21223;-75
2022/06/07 07:34:35;;;;;;;1.33;0.77;;;36.60;65.80;;;36.75;26.53;101117.31;4952755;28;20027;-75
2022/06/07 07:37:02;;;;;;;0.50;0.50;;;36.50;66.30;;;36.41;26.70;101121.63;4954470;28;20062;-75
2022/06/07 07:39:28;;;;;;;1.77;0.68;;;36.10;66.00;;;35.77;27.20;101106.66;4956321;28;20043;-76
2022/06/07 07:41:55;;;;;;;0.63;0.55;;;35.80;66.50;;;35.76;27.41;101105.00;4961811;28;20154;-75
2022/06/07 07:44:23;;;;;;;1.15;0.70;;;35.70;65.90;;;35.70;27.25;101104.00;4933894;28;20033;-75
2022/06/07 07:46:51;;;;;;;4.35;0.85;;;35.50;67.00;;;35.59;27.67;101094.63;4960089;28;20027;-75
2022/06/07 07:49:22;;;;;;;0.80;0.60;;;35.30;66.60;;;35.16;28.00;101092.75;4961654;28;20031;-75
2022/06/07 07:51:52;;;;;;;3.20;0.50;;;35.10;66.90;;;34.88;28.47;101088.59;4935342;28;20055;-75
2022/06/07 07:54:20;;;;;;;1.17;0.80;;;34.70;66.30;;;34.07;29.33;101081.94;4952466;28;20500;-75
2022/06/07 07:56:46;;;;;;;3.47;0.80;;;34.40;67.40;;;34.06;29.25;101077.56;4960994;28;20097;-74
2022/06/07 07:59:15;;;;;;;4.30;0.77;;;34.00;68.40;;;33.96;29.43;101066.25;4955619;28;20039;-75
2022/06/07 08:01:42;;;;;;;3.97;1.05;;;33.90;70.20;;;33.97;29.96;101056.16;4943559;28;20033;-75
2022/06/07 08:04:11;;;;;;;4.05;0.88;;;33.70;68.50;;;33.71;30.04;101056.06;4944121;28;20702;-74
2022/06/07 08:06:38;;;;;;;2.40;0.80;;;33.50;68.90;;;33.44;30.13;101054.47;4942160;28;20058;-75
2022/06/07 08:09:08;;;;;;;6.93;1.10;;;33.40;71.60;;;33.59;30.92;101046.03;4974669;28;20026;-75
2022/06/07 08:11:36;;;;;;;6.60;1.00;;;33.30;69.80;;;33.54;29.98;101046.66;4951811;28;20027;-75
2022/06/07 08:14:09;;;;;;;3.47;0.80;;;33.10;71.60;;;33.23;31.32;101031.00;4957480;28;20488;-75
2022/06/07 08:16:35;;;;;;;4.88;1.00;;;32.90;70.80;;;32.76;31.45;101025.59;4943629;28;20094;-75
2022/06/07 08:19:02;;;;;;;2.75;0.80;;;32.60;71.40;;;32.62;31.97;101023.94;4948947;28;20035;-75
2022/06/07 08:21:30;;;;;;;2.63;1.00;;;32.50;74.00;;;32.53;32.71;101009.69;4938268;28;20154;-75
2022/06/07 08:23:57;;;;;;;4.15;1.08;;;32.40;73.30;;;32.53;32.57;101003.38;4943449;28;20038;-75
2022/06/07 08:26:26;;;;;;;5.10;0.95;;;32.30;71.20;;;32.16;32.05;100997.44;4973961;28;20045;-75
2022/06/07 08:28:53;;;;;;;2.50;0.80;;;31.90;72.10;;;31.43;33.67;101003.50;4955664;28;20069;-75
2022/06/07 08:31:23;;;;;;;2.47;0.77;;;31.40;72.20;;;30.76;33.95;100991.34;4958435;28;20039;-76
2022/06/07 08:39:20;;;;;;;2.58;1.05;;;29.60;75.70;;;28.41;37.89;100975.88;4941163;28;20949;-76
2022/06/07 08:41:56;;;;;;;3.03;0.98;;;29.10;77.10;;;28.06;38.27;100957.56;4955192;28;20541;-76
2022/06/07 08:44:48;;;;;;;4.82;0.90;;;28.70;78.70;;;27.83;38.84;100961.88;4953517;28;20027;-76
2022/06/07 08:47:44;;;;;;;3.03;1.00;;;28.40;78.90;;;27.30;39.87;100955.44;4960345;28;20031;-76
2022/06/07 08:50:39;;;;;;;6.47;1.20;;;28.00;81.40;;;27.08;42.37;100943.47;4943462;28;20082;-76
2022/06/07 08:53:28;;;;;;;3.20;1.00;;;27.70;83.30;;;26.85;41.45;100950.66;4956431;28;20015;-76
2022/06/07 08:55:59;;;;;;;3.03;0.85;;;27.60;82.60;;;26.70;42.55;100937.84;4954683;28;20038;-76
2022/06/07 08:58:37;;;;;;;3.10;0.93;;;27.30;82.30;;;26.42;42.29;100944.59;4943383;28;20110;-76
2022/06/07 09:01:31;;;;;;;2.45;0.80;;;27.10;82.40;;;26.22;42.54;100928.75;4923119;28;20038;-76
2022/06/07 09:04:26;;;;;;;3.53;1.17;;;26.90;83.70;;;26.06;43.44;100920.66;4918852;28;20467;-76
2022/06/07 09:07:03;;;;;;;2.42;0.93;;;26.80;82.70;;;25.91;43.28;100909.69;4932631;28;20031;-76
2022/06/07 09:12:29;;;;;;;4.57;1.00;;;26.60;85.60;;;25.75;44.06;100913.19;4956226;28;20030;-76
2022/06/07 09:15:19;;;;;;;3.03;1.17;;;26.50;84.60;;;25.82;43.36;100902.56;4959727;28;20046;-76
2022/06/07 09:17:57;;;;;;;5.07;1.10;;;26.50;85.70;;;25.91;43.71;100901.59;4935808;28;20111;-75
2022/06/07 09:20:39;;;;;;;3.17;1.10;;;26.50;84.50;;;25.96;43.13;100901.91;4957716;28;21115;-76
2022/06/07 09:23:18;;;;;;;2.90;1.00;;;26.50;84.20;;;25.87;43.62;100898.34;4958650;28;20521;-76
2022/06/07 09:25:51;;;;;;;3.20;1.05;;;26.50;83.90;;;25.77;43.04;100887.72;4945384;28;20133;-76
2022/06/07 09:28:35;;;;;;;1.48;1.00;;;26.50;83.60;;;25.69;42.43;100876.09;4927744;28;20503;-76
2022/06/07 09:31:17;;;;;;;4.00;1.25;;;26.40;85.80;;;25.70;44.56;100875.94;4963953;28;20101;-76
2022/06/07 09:33:56;;;;;;;2.58;1.05;;;26.30;86.20;;;25.62;44.05;100869.69;4955943;28;20058;-76
2022/06/07 09:36:36;;;;;;;4.10;1.10;;;26.30;86.00;;;25.62;45.20;100862.44;4963092;28;20396;-76
2022/06/07 09:39:20;;;;;;;2.83;1.20;;;26.30;87.00;;;25.62;43.95;100864.28;4988983;28;20377;-76
2022/06/07 09:42:03;;;;;;;6.45;1.00;;;26.30;86.10;;;25.73;44.96;100862.09;4941397;28;20047;-76
2022/06/07 09:44:39;;;;;;;2.90;1.10;;;26.30;84.60;;;25.68;43.49;100863.59;4942502;28;20039;-77
2022/06/07 09:47:15;;;;;;;4.95;0.80;;;26.40;87.30;;;25.83;45.16;100855.69;4938377;28;20015;-76
2022/06/07 09:49:56;;;;;;;2.47;0.90;;;26.50;87.60;;;26.04;43.88;100861.44;4961992;28;20023;-76
2022/06/07 09:52:36;;;;;;;2.25;0.70;;;26.60;84.00;;;26.09;42.90;100851.00;4961220;28;20423;-76
2022/06/07 09:55:10;;;;;;;6.15;1.00;;;26.70;84.90;;;26.14;43.74;100847.81;4975516;28;20066;-76
2022/06/07 09:57:50;;;;;;;27.50;1.42;;;26.90;86.70;;;26.44;43.36;100842.69;4938767;28;20026;-76
2022/06/07 10:00:33;;;;;;;7.03;0.80;;;27.10;84.80;;;26.72;42.73;100853.94;4941886;28;20472;-76
2022/06/07 10:03:24;;;;;;;12.63;1.10;;;27.30;82.80;;;26.73;41.11;100855.63;4959321;28;20105;-76
2022/06/07 10:06:31;;;;;;;8.18;1.10;;;27.20;81.00;;;26.50;43.84;100848.25;4953566;28;20054;-76
2022/06/07 10:09:42;;;;;;;5.60;0.93;;;27.20;82.90;;;26.53;42.45;100850.59;4960638;28;20599;-76
2022/06/07 10:12:50;;;;;;;3.38;0.85;;;27.20;83.60;;;26.58;42.98;100842.00;4974730;28;20066;-76
2022/06/07 10:15:30;;;;;;;2.90;0.90;;;27.20;82.90;;;26.61;41.33;100847.06;4945103;28;20034;-76
2022/06/07 10:18:35;;;;;;;3.85;1.00;;;27.20;80.70;;;26.52;41.07;100842.66;4933964;28;20089;-76
2022/06/07 10:21:09;;;;;;;2.47;0.95;;;27.10;81.30;;;26.31;41.38;100835.97;4924206;28;20038;-76
2022/06/07 10:24:31;;;;;;;3.92;1.00;;;27.00;82.30;;;26.35;42.82;100831.91;4947367;28;20027;-76
2022/06/07 10:27:25;;;;;;;3.75;1.15;;;27.00;81.50;;;26.39;41.52;100827.00;4959067;28;20451;-76
2022/06/07 10:30:31;;;;;;;5.15;1.30;;;27.00;82.40;;;26.57;40.95;100830.34;4951219;28;20063;-77
2022/06/07 10:33:14;;;;;;;1.80;0.88;;;27.20;82.60;;;26.69;40.38;100824.56;4943792;28;20479;-76
2022/06/07 10:36:08;;;;;;;3.85;0.73;;;27.20;82.10;;;26.64;40.39;100829.66;4960720;28;20114;-76
2022/06/07 10:39:07;;;;;;;3.88;0.82;;;27.20;81.60;;;26.40;39.90;100832.22;4951916;28;20398;-76
2022/06/07 10:41:58;;;;;;;6.70;1.08;;;27.00;79.70;;;26.10;40.14;100832.97;4952274;28;20047;-76